createdAt,value
2022-09-26T00:02:26.346Z,9.17
2022-09-26T00:05:13.428Z,7.67
2022-09-26T00:08:00.772Z,6.47
2022-09-26T00:10:57.603Z,6.17
2022-09-26T00:13:45.191Z,7.17
2022-09-26T00:16:32.850Z,5.70
2022-09-26T00:19:20.722Z,6.60
2022-09-26T00:22:07.711Z,6.13
2022-09-26T00:24:54.632Z,8.53
2022-09-26T00:27:41.635Z,5.47
2022-09-26T00:30:28.826Z,9.30
2022-09-26T00:33:15.878Z,7.07
2022-09-26T00:36:03.235Z,6.47
2022-09-26T00:38:50.310Z,6.37
2022-09-26T00:41:37.487Z,5.27
2022-09-26T00:44:45.983Z,10.00
2022-09-26T00:47:47.574Z,8.33
2022-09-26T00:50:37.879Z,7.57
2022-09-26T00:53:32.113Z,7.33
2022-09-26T00:56:25.451Z,7.80
2022-09-26T00:59:35.730Z,9.00
2022-09-26T01:02:26.030Z,4.93
2022-09-26T01:05:16.266Z,9.67
2022-09-26T01:08:04.839Z,6.50
2022-09-26T01:10:51.822Z,5.67
2022-09-26T01:13:39.273Z,8.97
2022-09-26T01:16:27.182Z,7.27
2022-09-26T01:19:43.560Z,6.47
2022-09-26T01:22:51.598Z,4.13
2022-09-26T01:25:56.981Z,6.03
2022-09-26T01:29:00.796Z,7.37
2022-09-26T01:32:21.574Z,6.43
2022-09-26T01:35:18.266Z,7.80
2022-09-26T01:38:40.738Z,5.60
2022-09-26T01:41:56.933Z,5.03
2022-09-26T01:45:01.983Z,4.63
2022-09-26T01:47:52.883Z,4.97
2022-09-26T01:50:52.327Z,6.60
2022-09-26T01:53:47.243Z,4.57
2022-09-26T01:56:38.874Z,8.27
2022-09-26T01:59:30.486Z,5.57
2022-09-26T02:02:22.326Z,6.57
2022-09-26T02:05:25.733Z,7.53
2022-09-26T02:08:21.321Z,4.13
2022-09-26T02:11:16.737Z,7.70
2022-09-26T02:14:08.405Z,4.10
2022-09-26T02:17:20.339Z,4.00
2022-09-26T02:20:15.026Z,4.07
2022-09-26T02:23:05.391Z,4.10
2022-09-26T02:25:52.355Z,5.60
2022-09-26T02:28:39.358Z,4.33
2022-09-26T02:31:30.071Z,6.00
2022-09-26T02:34:17.181Z,5.17
2022-09-26T02:37:05.582Z,5.77
2022-09-26T02:39:53.401Z,4.50
2022-09-26T02:42:52.133Z,6.83
2022-09-26T02:46:20.083Z,4.67
2022-09-26T02:49:31.302Z,5.20
2022-09-26T02:52:35.353Z,6.43
2022-09-26T02:55:28.190Z,7.60
2022-09-26T02:58:21.366Z,8.23
2022-09-26T03:01:27.664Z,5.10
2022-09-26T03:04:21.131Z,7.77
2022-09-26T03:07:12.700Z,8.00
2022-09-26T03:10:03.825Z,6.60
2022-09-26T03:12:51.574Z,5.97
2022-09-26T03:15:41.600Z,10.23
2022-09-26T03:18:35.712Z,6.77
2022-09-26T03:21:23.463Z,8.60
2022-09-26T03:24:10.485Z,6.50
2022-09-26T03:26:59.842Z,7.80
2022-09-26T03:29:46.841Z,7.50
2022-09-26T03:32:33.809Z,10.50
2022-09-26T03:35:21.138Z,11.10
2022-09-26T03:38:11.327Z,9.37
2022-09-26T03:41:02.623Z,9.97
2022-09-26T03:43:49.809Z,11.03
2022-09-26T03:46:40.056Z,10.77
2022-09-26T03:49:27.307Z,8.93
2022-09-26T03:52:14.473Z,8.60
2022-09-26T03:55:01.410Z,9.97
2022-09-26T03:57:48.365Z,11.73
2022-09-26T04:00:35.426Z,10.87
2022-09-26T04:03:22.621Z,11.23
2022-09-26T04:06:10.783Z,12.03
2022-09-26T04:08:57.887Z,12.80
2022-09-26T04:11:45.869Z,18.13
2022-09-26T04:14:32.945Z,10.57
2022-09-26T04:17:20.120Z,11.83
2022-09-26T04:20:07.434Z,15.93
2022-09-26T04:22:55.169Z,11.33
2022-09-26T04:25:42.201Z,11.83
2022-09-26T04:28:29.127Z,11.97
2022-09-26T04:31:16.128Z,10.97
2022-09-26T04:34:05.188Z,14.23
2022-09-26T04:36:52.705Z,11.50
2022-09-26T04:39:39.699Z,12.20
2022-09-26T04:42:26.666Z,13.33
2022-09-26T04:45:13.649Z,13.53
2022-09-26T04:48:00.800Z,8.83
2022-09-26T04:50:47.804Z,8.77
2022-09-26T04:53:35.987Z,11.27
2022-09-26T04:56:25.254Z,7.70
2022-09-26T04:59:12.417Z,11.47
2022-09-26T05:01:59.473Z,10.10
2022-09-26T05:04:48.262Z,10.87
2022-09-26T05:07:42.659Z,8.57
2022-09-26T05:10:29.691Z,12.67
2022-09-26T05:13:16.642Z,9.20
2022-09-26T05:16:03.879Z,9.47
2022-09-26T05:18:52.080Z,9.40
2022-09-26T05:21:39.021Z,12.10
2022-09-26T05:24:44.613Z,14.47
2022-09-26T05:27:31.572Z,13.07
2022-09-26T05:30:18.673Z,11.80
2022-09-26T05:33:05.966Z,11.23
2022-09-26T05:35:56.138Z,8.43
2022-09-26T05:38:43.084Z,9.73
2022-09-26T05:41:32.029Z,8.67
2022-09-26T05:44:20.110Z,11.27
2022-09-26T05:47:08.846Z,10.20
2022-09-26T05:49:55.847Z,9.30
2022-09-26T05:52:42.975Z,10.90
2022-09-26T05:55:30.136Z,10.27
2022-09-26T05:58:20.979Z,16.07
2022-09-26T06:01:17.227Z,9.03
2022-09-26T06:04:04.390Z,8.00
2022-09-26T06:06:51.425Z,10.00
2022-09-26T06:09:39.029Z,11.10
2022-09-26T06:12:26.580Z,10.07
2022-09-26T06:15:15.397Z,10.17
2022-09-26T06:18:05.000Z,9.40
2022-09-26T06:20:52.341Z,9.47
2022-09-26T06:23:39.915Z,12.57
2022-09-26T06:26:29.109Z,9.20
2022-09-26T06:29:16.353Z,8.37
2022-09-26T06:32:03.808Z,8.50
2022-09-26T06:37:24.550Z,10.37
2022-09-26T06:40:12.029Z,13.30
2022-09-26T06:42:59.779Z,8.60
2022-09-26T06:45:49.021Z,8.23
2022-09-26T06:48:36.518Z,8.10
2022-09-26T06:51:26.621Z,10.20
2022-09-26T06:54:13.613Z,11.97
2022-09-26T06:57:00.522Z,9.93
2022-09-26T06:59:47.486Z,11.60
2022-09-26T07:02:34.706Z,13.23
2022-09-26T07:05:23.298Z,8.20
2022-09-26T07:08:10.340Z,13.00
2022-09-26T07:11:21.231Z,9.37
2022-09-26T07:14:11.755Z,11.37
2022-09-26T07:16:58.858Z,8.57
2022-09-26T07:19:50.606Z,11.80
2022-09-26T07:22:37.661Z,13.73
2022-09-26T07:25:24.545Z,10.30
2022-09-26T07:28:11.575Z,10.00
2022-09-26T07:31:00.630Z,8.67
2022-09-26T07:33:47.687Z,8.93
2022-09-26T07:36:35.051Z,8.03
2022-09-26T07:39:22.055Z,10.07
2022-09-26T07:42:09.724Z,9.67
2022-09-26T07:48:22.660Z,8.83
2022-09-26T07:51:12.209Z,9.77
2022-09-26T07:53:59.266Z,9.87
2022-09-26T07:56:46.331Z,9.97
2022-09-26T07:59:36.808Z,9.47
2022-09-26T08:02:26.929Z,9.57
2022-09-26T08:05:22.365Z,9.00
2022-09-26T08:08:09.350Z,8.60
2022-09-26T08:11:04.037Z,8.80
2022-09-26T08:13:51.734Z,9.67
2022-09-26T08:16:41.634Z,8.30
2022-09-26T08:19:28.714Z,10.53
2022-09-26T08:22:15.643Z,8.27
2022-09-26T08:25:03.349Z,9.63
2022-09-26T08:30:53.566Z,6.60
2022-09-26T08:33:41.549Z,8.90
2022-09-26T08:36:28.550Z,11.77
2022-09-26T08:39:15.832Z,8.57
2022-09-26T08:42:18.172Z,9.87
2022-09-26T08:45:55.848Z,8.30
2022-09-26T08:49:01.028Z,8.23
2022-09-26T08:51:51.633Z,7.73
2022-09-26T08:54:43.439Z,9.43
2022-09-26T08:57:37.578Z,7.97
2022-09-26T09:00:27.755Z,6.10
2022-09-26T09:03:20.805Z,9.00
2022-09-26T09:06:11.569Z,7.70
2022-09-26T09:08:58.809Z,8.60
2022-09-26T09:11:54.958Z,10.97
2022-09-26T09:17:29.515Z,8.30
2022-09-26T09:20:35.483Z,6.93
2022-09-26T09:23:25.608Z,8.43
2022-09-26T09:29:49.387Z,8.20
2022-09-26T09:32:49.037Z,8.30
2022-09-26T09:35:53.342Z,6.10
2022-09-26T09:38:43.423Z,6.50
2022-09-26T09:41:45.639Z,7.37
2022-09-26T09:44:47.000Z,5.70
2022-09-26T09:47:38.815Z,6.73
2022-09-26T09:50:49.053Z,5.10
2022-09-26T09:54:06.990Z,5.13
2022-09-26T09:57:15.397Z,6.37
2022-09-26T10:00:11.622Z,8.77
2022-09-26T10:03:04.659Z,6.20
2022-09-26T10:06:01.066Z,5.60
2022-09-26T10:08:50.714Z,8.80
2022-09-26T10:11:42.657Z,4.23
2022-09-26T10:14:36.070Z,4.33
2022-09-26T10:17:24.253Z,5.23
2022-09-26T10:20:52.902Z,5.77
2022-09-26T10:23:44.253Z,5.47
2022-09-26T10:26:36.849Z,6.43
2022-09-26T10:29:38.408Z,6.93
2022-09-26T10:32:27.258Z,4.10
2022-09-26T10:35:24.837Z,4.30
2022-09-26T10:38:29.781Z,5.30
2022-09-26T10:41:24.354Z,4.53
2022-09-26T10:44:25.317Z,6.53
2022-09-26T10:47:25.080Z,9.43
2022-09-26T10:50:22.151Z,5.53
2022-09-26T10:53:15.707Z,7.23
2022-09-26T10:56:11.540Z,6.73
2022-09-26T10:59:04.411Z,6.00
2022-09-26T11:01:56.546Z,6.57
2022-09-26T11:05:05.018Z,8.10
2022-09-26T11:07:52.916Z,7.87
2022-09-26T11:10:42.053Z,7.37
2022-09-26T11:13:39.050Z,7.63
2022-09-26T11:16:26.192Z,5.47
2022-09-26T11:20:02.497Z,6.20
2022-09-26T11:23:06.686Z,5.37
2022-09-26T11:26:19.121Z,6.10
2022-09-26T11:29:18.285Z,4.17
2022-09-26T11:32:05.888Z,7.83
2022-09-26T11:34:54.484Z,6.77
2022-09-26T11:38:24.027Z,3.63
2022-09-26T11:41:48.835Z,4.30
2022-09-26T11:44:53.631Z,5.53
2022-09-26T11:48:08.989Z,4.80
2022-09-26T11:51:19.918Z,5.60
2022-09-26T11:54:48.706Z,3.83
2022-09-26T11:58:05.622Z,4.00
2022-09-26T12:01:30.859Z,6.47
2022-09-26T12:04:50.189Z,5.50
2022-09-26T12:07:49.467Z,3.07
2022-09-26T12:11:39.850Z,7.77
2022-09-26T12:14:42.345Z,3.07
2022-09-26T12:17:52.621Z,2.93
2022-09-26T12:21:17.224Z,4.60
2022-09-26T12:24:24.196Z,5.07
2022-09-26T12:27:26.514Z,2.53
2022-09-26T12:30:22.166Z,5.47
2022-09-26T12:33:47.477Z,3.10
2022-09-26T12:36:53.242Z,2.50
2022-09-26T12:40:11.301Z,3.80
2022-09-26T12:43:16.922Z,5.60
2022-09-26T12:46:22.693Z,4.87
2022-09-26T12:49:49.596Z,3.80
2022-09-26T12:53:10.333Z,3.73
2022-09-26T12:56:33.930Z,4.47
2022-09-26T12:59:21.544Z,2.33
2022-09-26T13:02:19.597Z,4.37
2022-09-26T13:05:47.759Z,2.80
2022-09-26T13:09:13.945Z,5.93
2022-09-26T13:12:20.113Z,4.23
2022-09-26T13:15:13.197Z,3.37
2022-09-26T13:18:08.063Z,7.33
2022-09-26T13:21:03.206Z,4.03
2022-09-26T13:23:53.950Z,6.10
2022-09-26T13:26:47.012Z,4.23
2022-09-26T13:29:37.581Z,4.40
2022-09-26T13:33:11.525Z,4.60
2022-09-26T13:36:03.917Z,3.60
2022-09-26T13:39:20.481Z,5.47
2022-09-26T13:42:18.396Z,3.30
2022-09-26T13:45:38.857Z,2.80
2022-09-26T13:48:51.908Z,4.20
2022-09-26T13:51:49.699Z,3.27
2022-09-26T13:55:00.706Z,3.77
2022-09-26T13:58:04.400Z,5.50
2022-09-26T14:00:54.809Z,5.77
2022-09-26T14:03:43.219Z,2.87
2022-09-26T14:06:31.098Z,3.03
2022-09-26T14:09:24.480Z,2.70
2022-09-26T14:12:20.986Z,3.40
2022-09-26T14:15:27.698Z,4.17
2022-09-26T14:18:43.511Z,4.20
2022-09-26T14:21:35.284Z,2.27
2022-09-26T14:24:43.317Z,2.50
2022-09-26T14:27:36.566Z,1.90
2022-09-26T14:30:31.186Z,2.83
2022-09-26T14:33:19.112Z,4.00
2022-09-26T14:36:25.825Z,4.13
2022-09-26T14:39:33.442Z,3.47
2022-09-26T14:42:25.338Z,3.63
2022-09-26T14:45:18.481Z,2.37
2022-09-26T14:48:08.388Z,3.23
2022-09-26T14:51:03.631Z,2.33
2022-09-26T14:53:50.648Z,3.70
2022-09-26T14:56:46.595Z,5.60
2022-09-26T14:59:33.547Z,3.80
2022-09-26T15:02:42.581Z,2.40
2022-09-26T15:05:32.816Z,2.80
2022-09-26T15:08:29.134Z,2.80
2022-09-26T15:11:47.675Z,3.23
2022-09-26T15:14:43.545Z,2.20
2022-09-26T15:17:44.506Z,2.47
2022-09-26T15:20:36.747Z,2.40
2022-09-26T15:23:27.612Z,2.73
2022-09-26T15:26:18.814Z,2.53
2022-09-26T15:29:08.091Z,3.17
2022-09-26T15:32:12.568Z,5.47
2022-09-26T15:35:06.343Z,3.53
2022-09-26T15:38:08.885Z,3.60
2022-09-26T15:41:05.649Z,5.30
2022-09-26T15:44:08.028Z,3.50
2022-09-26T15:47:02.406Z,3.07
2022-09-26T15:50:24.662Z,3.50
2022-09-26T15:53:22.948Z,5.10
2022-09-26T15:56:33.081Z,4.57
2022-09-26T15:59:40.082Z,3.70
2022-09-26T16:05:40.881Z,3.90
2022-09-26T16:08:34.072Z,5.33
2022-09-26T16:11:32.821Z,4.67
2022-09-26T16:14:50.563Z,4.47
2022-09-26T16:17:49.349Z,3.90
2022-09-26T16:20:39.719Z,3.47
2022-09-26T16:23:30.455Z,4.50
2022-09-26T16:26:47.325Z,4.23
2022-09-26T16:29:37.309Z,2.73
2022-09-26T16:32:27.517Z,3.17
2022-09-26T16:35:30.155Z,3.63
2022-09-26T16:38:26.408Z,5.20
2022-09-26T16:41:59.591Z,4.63
2022-09-26T16:44:50.363Z,6.87
2022-09-26T16:47:43.043Z,5.70
2022-09-26T16:50:33.386Z,5.73
2022-09-26T16:53:20.776Z,2.77
2022-09-26T16:56:12.167Z,2.90
2022-09-26T16:59:02.535Z,4.83
2022-09-26T17:01:59.026Z,5.63
2022-09-26T17:04:47.362Z,2.90
2022-09-26T17:07:34.341Z,3.20
2022-09-26T17:10:24.964Z,4.63
2022-09-26T17:13:18.339Z,3.23
2022-09-26T17:16:07.638Z,3.00
2022-09-26T17:18:56.964Z,3.50
2022-09-26T17:21:46.986Z,5.27
2022-09-26T17:24:34.000Z,2.77
2022-09-26T17:27:27.477Z,4.63
2022-09-26T17:30:19.186Z,6.50
2022-09-26T17:33:06.321Z,3.17
2022-09-26T17:35:53.555Z,5.13
2022-09-26T17:38:42.323Z,3.90
2022-09-26T17:41:31.417Z,2.53
2022-09-26T17:44:19.759Z,3.60
2022-09-26T17:47:07.416Z,4.87
2022-09-26T17:49:56.281Z,3.33
2022-09-26T17:52:43.394Z,4.70
2022-09-26T17:55:31.373Z,2.53
2022-09-26T17:58:19.371Z,3.17
2022-09-26T18:01:09.042Z,6.00
2022-09-26T18:04:01.041Z,2.70
2022-09-26T18:06:48.107Z,3.83
2022-09-26T18:09:35.727Z,4.23
2022-09-26T18:12:24.679Z,3.00
2022-09-26T18:15:20.420Z,2.40
2022-09-26T18:18:18.328Z,3.77
2022-09-26T18:21:10.521Z,3.20
2022-09-26T18:24:02.265Z,5.03
2022-09-26T18:26:51.206Z,3.87
2022-09-26T18:29:40.614Z,3.33
2022-09-26T18:32:33.952Z,3.30
2022-09-26T18:35:27.810Z,3.03
2022-09-26T18:38:16.314Z,4.73
2022-09-26T18:41:07.342Z,3.90
2022-09-26T18:43:57.851Z,3.23
2022-09-26T18:46:47.286Z,4.97
2022-09-26T18:49:37.173Z,3.93
2022-09-26T18:52:24.493Z,2.83
2022-09-26T18:55:37.035Z,2.90
2022-09-26T18:58:24.207Z,3.20
2022-09-26T19:01:15.051Z,6.40
2022-09-26T19:04:12.116Z,3.47
2022-09-26T19:07:01.856Z,3.07
2022-09-26T19:09:49.972Z,5.63
2022-09-26T19:12:39.552Z,3.77
2022-09-26T19:15:27.889Z,5.20
2022-09-26T19:18:14.904Z,3.60
2022-09-26T19:21:04.814Z,4.93
2022-09-26T19:23:52.656Z,3.60
2022-09-26T19:26:43.139Z,5.53
2022-09-26T19:30:07.382Z,4.93
2022-09-26T19:32:56.678Z,7.17
2022-09-26T19:35:44.303Z,3.00
2022-09-26T19:38:31.377Z,4.00
2022-09-26T19:41:18.370Z,5.60
2022-09-26T19:44:07.345Z,4.13
2022-09-26T19:46:54.706Z,4.90
2022-09-26T19:49:42.500Z,6.17
2022-09-26T19:52:30.335Z,3.70
2022-09-26T19:55:29.210Z,4.50
2022-09-26T19:58:24.963Z,5.40
2022-09-26T20:01:19.147Z,3.60
2022-09-26T20:04:16.318Z,7.57
2022-09-26T20:07:03.444Z,4.87
2022-09-26T20:09:50.441Z,4.63
2022-09-26T20:12:37.446Z,5.83
2022-09-26T20:15:24.673Z,5.17
2022-09-26T20:18:22.271Z,5.33
2022-09-26T20:21:10.398Z,4.27
2022-09-26T20:24:00.347Z,4.47
2022-09-26T20:26:48.853Z,4.77
2022-09-26T20:29:55.948Z,3.97
2022-09-26T20:32:43.119Z,5.20
2022-09-26T20:35:35.650Z,3.90
2022-09-26T20:38:30.618Z,4.77
2022-09-26T20:41:29.878Z,3.67
2022-09-26T20:44:33.640Z,5.40
2022-09-26T20:47:21.388Z,4.93
2022-09-26T20:50:17.958Z,6.73
2022-09-26T20:53:23.109Z,5.63
2022-09-26T20:56:16.925Z,3.40
2022-09-26T20:59:03.921Z,4.43
2022-09-26T21:01:52.276Z,3.17
2022-09-26T21:04:39.467Z,4.80
2022-09-26T21:07:26.910Z,3.10
2022-09-26T21:10:27.550Z,4.20
2022-09-26T21:13:14.535Z,4.33
2022-09-26T21:16:01.860Z,4.17
2022-09-26T21:18:52.310Z,3.53
2022-09-26T21:21:39.900Z,5.33
2022-09-26T21:24:33.635Z,5.47
2022-09-26T21:27:21.437Z,3.73
2022-09-26T21:30:14.220Z,5.70
2022-09-26T21:33:01.230Z,4.80
2022-09-26T21:35:48.347Z,4.27
2022-09-26T21:38:35.341Z,5.27
2022-09-26T21:41:23.833Z,3.80
2022-09-26T21:44:19.442Z,5.37
2022-09-26T21:47:07.154Z,3.90
2022-09-26T21:49:54.666Z,3.73
2022-09-26T21:52:48.610Z,4.27
2022-09-26T21:55:40.119Z,6.40
2022-09-26T21:58:32.585Z,5.20
2022-09-26T22:01:20.579Z,4.10
2022-09-26T22:04:07.593Z,2.80
2022-09-26T22:06:54.562Z,3.83
2022-09-26T22:09:42.314Z,3.77
2022-09-26T22:12:29.357Z,2.77
2022-09-26T22:15:16.357Z,3.40
2022-09-26T22:18:03.416Z,4.00
2022-09-26T22:20:56.580Z,3.80
2022-09-26T22:23:43.570Z,3.63
2022-09-26T22:26:30.580Z,3.93
2022-09-26T22:29:17.610Z,5.43
2022-09-26T22:32:04.921Z,3.50
2022-09-26T22:34:51.877Z,3.57
2022-09-26T22:37:39.491Z,2.70
2022-09-26T22:40:26.645Z,3.57
2022-09-26T22:43:13.726Z,3.37
2022-09-26T22:46:05.642Z,3.33
2022-09-26T22:48:52.685Z,5.07
2022-09-26T22:51:39.634Z,3.60
2022-09-26T22:54:26.698Z,3.33
2022-09-26T22:57:13.750Z,3.10
2022-09-26T23:00:01.957Z,3.00
2022-09-26T23:02:49.011Z,3.23
2022-09-26T23:05:36.037Z,3.60
2022-09-26T23:08:23.026Z,5.93
2022-09-26T23:11:11.629Z,4.87
2022-09-26T23:13:58.800Z,4.23
2022-09-26T23:16:45.788Z,4.27
2022-09-26T23:19:33.092Z,6.27
2022-09-26T23:22:20.033Z,4.97
2022-09-26T23:25:08.233Z,4.63
2022-09-26T23:27:55.161Z,4.40
2022-09-26T23:30:42.749Z,5.50
2022-09-26T23:33:29.835Z,5.53
2022-09-26T23:36:18.114Z,5.37
2022-09-26T23:39:07.830Z,5.37
2022-09-26T23:41:54.761Z,7.33
2022-09-26T23:44:41.762Z,7.10
2022-09-26T23:47:28.761Z,6.90
2022-09-26T23:50:15.777Z,8.87
2022-09-26T23:53:06.481Z,8.67
2022-09-26T23:56:01.759Z,7.93
2022-09-26T23:58:48.725Z,9.23
